Time;durP1;ratioP1;P1;durP2;ratioP2;P2;SDS_P1;SDS_P2;PMS_P1;PMS_P2;Temp;Humidity;BMP_temperature;BMP_pressure;BME280_temperature;BME280_humidity;BME280_pressure;Samples;Min_cycle;Max_cycle;Signal;HPM_P1;HPM_P2
2022/12/21 00:02:22;;;;;;;72.03;31.37;;;;;;;;;;6220520;28;20041;-82
2022/12/21 00:05:22;;;;;;;73.03;32.43;;;;;;;;;;6229388;28;20671;-83
2022/12/21 00:08:22;;;;;;;70.77;32.07;;;;;;;;;;6223728;28;20464;-83
2022/12/21 00:11:23;;;;;;;80.78;35.00;;;;;;;;;;6219160;28;20020;-82
2022/12/21 00:14:23;;;;;;;75.28;34.88;;;;;;;;;;6223185;28;20022;-83
2022/12/21 00:17:27;;;;;;;75.00;34.67;;;;;;;;;;6223397;28;20526;-83
2022/12/21 00:20:27;;;;;;;76.95;34.47;;;;;;;;;;6220404;28;20014;-83
2022/12/21 00:23:28;;;;;;;79.07;36.40;;;;;;;;;;6215210;28;20049;-82
2022/12/21 00:26:33;;;;;;;76.07;34.27;;;;;;;;;;6211771;28;20018;-84
2022/12/21 00:29:33;;;;;;;92.95;40.10;;;;;;;;;;6216867;28;20029;-83
2022/12/21 00:32:33;;;;;;;84.97;39.30;;;;;;;;;;6221721;28;20096;-83
2022/12/21 00:35:33;;;;;;;85.90;37.33;;;;;;;;;;6221297;28;20028;-83
2022/12/21 00:38:34;;;;;;;96.17;43.77;;;;;;;;;;6223351;28;20046;-82
2022/12/21 00:41:34;;;;;;;82.13;37.77;;;;;;;;;;6218675;28;20057;-82
2022/12/21 00:44:34;;;;;;;75.90;34.27;;;;;;;;;;6220841;28;20013;-82
2022/12/21 00:47:34;;;;;;;71.53;33.83;;;;;;;;;;6221124;28;20026;-83
2022/12/21 00:50:35;;;;;;;61.67;29.58;;;;;;;;;;6219829;28;20045;-83
2022/12/21 00:53:35;;;;;;;71.80;31.60;;;;;;;;;;6229034;28;20432;-83
2022/12/21 00:56:35;;;;;;;63.33;28.83;;;;;;;;;;6219714;28;20018;-83
2022/12/21 00:59:36;;;;;;;69.27;30.33;;;;;;;;;;6220271;28;20016;-84
2022/12/21 01:02:36;;;;;;;69.73;29.43;;;;;;;;;;6219642;28;20115;-82
2022/12/21 01:05:36;;;;;;;67.97;30.20;;;;;;;;;;6217647;28;20080;-82
2022/12/21 01:08:36;;;;;;;73.20;34.70;;;;;;;;;;6225351;28;20113;-83
2022/12/21 01:11:36;;;;;;;66.63;31.00;;;;;;;;;;6217696;28;20557;-82
2022/12/21 01:14:37;;;;;;;61.37;27.57;;;;;;;;;;6218950;28;20080;-83
2022/12/21 01:17:37;;;;;;;67.90;31.63;;;;;;;;;;6227139;28;20227;-82
2022/12/21 01:20:41;;;;;;;67.37;33.10;;;;;;;;;;6220113;28;20014;-82
2022/12/21 01:23:42;;;;;;;62.03;30.73;;;;;;;;;;6217608;28;20026;-83
2022/12/21 01:26:43;;;;;;;70.63;31.52;;;;;;;;;;6219960;28;20021;-81
2022/12/21 01:29:43;;;;;;;64.67;30.67;;;;;;;;;;6226996;28;20076;-82
2022/12/21 01:32:43;;;;;;;81.83;39.30;;;;;;;;;;6218729;28;20010;-82
2022/12/21 01:35:44;;;;;;;77.05;38.95;;;;;;;;;;6219873;28;20043;-82
2022/12/21 01:38:45;;;;;;;97.27;41.90;;;;;;;;;;6222183;28;20041;-81
2022/12/21 01:41:45;;;;;;;69.17;36.13;;;;;;;;;;6220615;28;20048;-82
2022/12/21 01:44:48;;;;;;;69.00;34.17;;;;;;;;;;6222679;28;20014;-81
2022/12/21 01:47:54;;;;;;;78.03;35.30;;;;;;;;;;6221309;28;20025;-81
2022/12/21 01:51:00;;;;;;;72.32;33.58;;;;;;;;;;6229777;28;20231;-82
2022/12/21 01:54:02;;;;;;;75.35;31.13;;;;;;;;;;6223521;28;20030;-81
2022/12/21 01:57:04;;;;;;;66.60;32.38;;;;;;;;;;6222936;28;20069;-81
2022/12/21 02:00:04;;;;;;;;;;;;;;;;;;6229320;28;20101;-81
2022/12/21 02:03:06;;;;;;;72.25;30.52;;;;;;;;;;6228171;28;19906;-81
2022/12/21 02:06:08;;;;;;;79.47;35.72;;;;;;;;;;6235591;28;20045;-81
2022/12/21 02:09:08;;;;;;;80.32;33.97;;;;;;;;;;6233302;28;20029;-82
2022/12/21 02:12:10;;;;;;;77.13;35.87;;;;;;;;;;6232694;28;20452;-81
2022/12/21 02:15:10;;;;;;;83.35;38.90;;;;;;;;;;6235797;28;20072;-81
2022/12/21 02:18:29;;;;;;;79.23;34.10;;;;;;;;;;6236773;28;20210;-80
2022/12/21 02:21:38;;;;;;;75.82;37.05;;;;;;;;;;6239397;28;20014;-80
2022/12/21 02:24:56;;;;;;;79.28;38.60;;;;;;;;;;6237152;28;20034;-80
2022/12/21 02:28:15;;;;;;;69.43;34.03;;;;;;;;;;6229853;28;20041;-80
2022/12/21 02:31:32;;;;;;;65.45;31.13;;;;;;;;;;6233538;28;20041;-80
2022/12/21 02:34:51;;;;;;;68.60;33.17;;;;;;;;;;6242738;28;20001;-80
2022/12/21 02:38:01;;;;;;;59.45;29.48;;;;;;;;;;6228550;28;20022;-80
2022/12/21 02:41:12;;;;;;;69.35;32.65;;;;;;;;;;6237739;28;20018;-81
2022/12/21 02:44:25;;;;;;;67.05;30.42;;;;;;;;;;6238024;28;20389;-80
2022/12/21 02:47:29;;;;;;;60.00;26.50;;;;;;;;;;6247263;28;20342;-80
2022/12/21 02:50:34;;;;;;;76.65;35.00;;;;;;;;;;6242564;28;21338;-80
2022/12/21 02:53:36;;;;;;;69.55;31.92;;;;;;;;;;6241501;28;20022;-79
2022/12/21 02:56:36;;;;;;;72.35;35.40;;;;;;;;;;6239611;28;20037;-79
2022/12/21 02:59:39;;;;;;;64.03;31.53;;;;;;;;;;6244628;28;20252;-79
2022/12/21 03:02:39;;;;;;;66.60;30.52;;;;;;;;;;6237031;28;20101;-80
2022/12/21 03:06:02;;;;;;;69.23;29.07;;;;;;;;;;6238314;28;20022;-81
2022/12/21 03:09:12;;;;;;;64.68;28.95;;;;;;;;;;6221102;28;20049;-79
2022/12/21 03:12:16;;;;;;;62.30;28.13;;;;;;;;;;6241097;28;20116;-79
2022/12/21 03:15:33;;;;;;;62.10;30.17;;;;;;;;;;6239865;28;20030;-80
2022/12/21 03:18:38;;;;;;;68.18;28.30;;;;;;;;;;6250468;28;20029;-79
2022/12/21 03:21:45;;;;;;;66.07;29.50;;;;;;;;;;6229269;28;20022;-79
2022/12/21 03:24:48;;;;;;;60.25;30.63;;;;;;;;;;6243254;28;20018;-79
2022/12/21 03:27:52;;;;;;;68.03;31.85;;;;;;;;;;6241771;28;20066;-79
2022/12/21 03:30:54;;;;;;;55.33;28.50;;;;;;;;;;6242113;28;20077;-79
2022/12/21 03:33:58;;;;;;;58.22;28.70;;;;;;;;;;6251588;28;20440;-80
2022/12/21 03:37:04;;;;;;;55.80;26.27;;;;;;;;;;6243180;28;20105;-81
2022/12/21 03:40:10;;;;;;;59.38;30.40;;;;;;;;;;6249573;28;20030;-80
2022/12/21 03:43:14;;;;;;;56.58;28.35;;;;;;;;;;6242012;28;20026;-79
2022/12/21 03:46:22;;;;;;;57.33;28.40;;;;;;;;;;6255431;28;20021;-80
2022/12/21 03:49:25;;;;;;;57.88;27.73;;;;;;;;;;6245669;28;20265;-80
2022/12/21 03:52:31;;;;;;;54.25;29.38;;;;;;;;;;6245896;28;20029;-79
2022/12/21 03:55:34;;;;;;;60.90;28.98;;;;;;;;;;6248680;28;20026;-80
2022/12/21 03:58:35;;;;;;;61.50;26.38;;;;;;;;;;6249979;28;20037;-80
2022/12/21 04:01:38;;;;;;;59.95;27.75;;;;;;;;;;6249667;28;20037;-79
2022/12/21 04:04:47;;;;;;;56.38;26.33;;;;;;;;;;6244002;28;20022;-79
2022/12/21 04:07:48;;;;;;;65.13;28.77;;;;;;;;;;6243856;28;20235;-79
2022/12/21 04:10:48;;;;;;;61.38;28.13;;;;;;;;;;6242768;28;20026;-78
2022/12/21 04:13:49;;;;;;;82.30;33.00;;;;;;;;;;6242891;28;20018;-79
2022/12/21 04:16:49;;;;;;;86.70;33.73;;;;;;;;;;6241656;28;20584;-79
2022/12/21 04:19:58;;;;;;;73.20;30.83;;;;;;;;;;6246474;28;20033;-79
2022/12/21 04:29:38;;;;;;;72.95;31.30;;;;;;;;;;6240321;28;20054;-79
2022/12/21 04:32:38;;;;;;;59.03;28.75;;;;;;;;;;6244584;28;20013;-79
2022/12/21 04:37:30;;;;;;;61.33;26.07;;;;;;;;;;6242794;28;20021;-79
2022/12/21 04:38:58;;;;;;;55.35;26.58;;;;;;;;;;6237889;28;20060;-79
2022/12/21 04:41:58;;;;;;;63.03;28.70;;;;;;;;;;6249563;28;20014;-80
2022/12/21 04:44:59;;;;;;;108.63;48.70;;;;;;;;;;6237877;28;20002;-79
2022/12/21 04:47:59;;;;;;;83.67;37.63;;;;;;;;;;6237476;28;20533;-79
2022/12/21 04:51:07;;;;;;;81.40;32.88;;;;;;;;;;6237542;28;20171;-81
2022/12/21 04:54:07;;;;;;;68.45;31.40;;;;;;;;;;6236412;28;20033;-79
2022/12/21 04:57:07;;;;;;;55.57;25.77;;;;;;;;;;6234194;28;20026;-78
2022/12/21 05:00:08;;;;;;;59.00;25.97;;;;;;;;;;6237233;28;20404;-79
2022/12/21 05:03:08;;;;;;;67.73;29.20;;;;;;;;;;6235674;28;20032;-78
2022/12/21 05:06:09;;;;;;;66.05;31.48;;;;;;;;;;6235988;28;20021;-78
2022/12/21 05:09:11;;;;;;;83.17;31.90;;;;;;;;;;6236846;28;20092;-78
2022/12/21 05:12:12;;;;;;;90.07;37.28;;;;;;;;;;6234593;28;20026;-78
2022/12/21 05:15:13;;;;;;;73.73;30.87;;;;;;;;;;6230572;28;20033;-78
2022/12/21 05:18:13;;;;;;;91.25;36.20;;;;;;;;;;6221430;28;20022;-79
2022/12/21 05:21:13;;;;;;;67.10;30.15;;;;;;;;;;6229468;28;20025;-79
2022/12/21 05:24:13;;;;;;;75.83;33.03;;;;;;;;;;6231386;28;20014;-79
2022/12/21 05:27:14;;;;;;;50.77;22.97;;;;;;;;;;6226150;28;20049;-79
2022/12/21 05:30:14;;;;;;;58.40;24.83;;;;;;;;;;6228432;28;20022;-79
2022/12/21 05:33:14;;;;;;;65.03;26.70;;;;;;;;;;6237219;28;20057;-79
2022/12/21 05:36:16;;;;;;;49.87;22.80;;;;;;;;;;6238746;28;20025;-79
2022/12/21 05:39:16;;;;;;;59.05;24.13;;;;;;;;;;6234391;28;20057;-78
2022/12/21 05:42:16;;;;;;;57.93;23.37;;;;;;;;;;6232476;28;20010;-79
2022/12/21 05:45:16;;;;;;;62.60;24.55;;;;;;;;;;6223990;28;20029;-79
2022/12/21 05:48:16;;;;;;;71.50;27.07;;;;;;;;;;6232982;28;20080;-79
2022/12/21 05:51:17;;;;;;;145.52;60.33;;;;;;;;;;6240654;28;20056;-80
2022/12/21 05:54:17;;;;;;;104.50;40.63;;;;;;;;;;6235760;28;20028;-78
2022/12/21 05:57:17;;;;;;;83.07;36.27;;;;;;;;;;6240078;28;20104;-79
2022/12/21 06:00:17;;;;;;;73.83;29.40;;;;;;;;;;6236306;28;20022;-79
2022/12/21 06:03:18;;;;;;;71.43;29.53;;;;;;;;;;6237449;28;20277;-78
2022/12/21 06:06:18;;;;;;;64.23;27.63;;;;;;;;;;6226378;28;20030;-78
2022/12/21 06:09:18;;;;;;;89.77;33.63;;;;;;;;;;6238977;28;20196;-78
2022/12/21 06:12:18;;;;;;;116.23;42.70;;;;;;;;;;6233182;28;20032;-79
2022/12/21 06:15:18;;;;;;;107.87;38.97;;;;;;;;;;6219395;28;20045;-78
2022/12/21 06:18:19;;;;;;;91.33;36.30;;;;;;;;;;6221364;28;20021;-79
2022/12/21 06:21:19;;;;;;;84.10;33.73;;;;;;;;;;6225576;28;20065;-77
2022/12/21 06:24:19;;;;;;;90.57;31.77;;;;;;;;;;6218846;28;20112;-78
2022/12/21 06:27:20;;;;;;;80.70;32.53;;;;;;;;;;6221773;28;20014;-78
2022/12/21 06:30:20;;;;;;;77.57;30.83;;;;;;;;;;6220579;28;20113;-79
2022/12/21 06:33:21;;;;;;;108.87;44.30;;;;;;;;;;6220655;28;20022;-77
2022/12/21 06:36:21;;;;;;;106.82;43.72;;;;;;;;;;6232406;28;20022;-79
2022/12/21 06:39:21;;;;;;;98.93;42.60;;;;;;;;;;6225462;28;20046;-78
2022/12/21 06:42:22;;;;;;;102.27;40.87;;;;;;;;;;6219059;28;20090;-79
2022/12/21 06:45:22;;;;;;;70.70;29.15;;;;;;;;;;6217895;28;20014;-79
2022/12/21 06:48:23;;;;;;;85.43;36.57;;;;;;;;;;6218998;28;20053;-79
2022/12/21 06:51:23;;;;;;;59.03;23.70;;;;;;;;;;6219093;28;20611;-78
2022/12/21 06:54:23;;;;;;;72.20;30.37;;;;;;;;;;6218641;28;20037;-78
2022/12/21 06:57:23;;;;;;;78.20;33.40;;;;;;;;;;6218026;28;20037;-78
2022/12/21 07:00:24;;;;;;;75.47;32.40;;;;;;;;;;6226013;28;20010;-80
2022/12/21 07:03:24;;;;;;;81.90;35.33;;;;;;;;;;6220809;28;20014;-78
2022/12/21 07:06:25;;;;;;;79.23;34.37;;;;;;;;;;6218857;28;20030;-79
2022/12/21 07:09:25;;;;;;;91.05;33.55;;;;;;;;;;6212145;28;20123;-79
2022/12/21 07:12:26;;;;;;;75.47;33.07;;;;;;;;;;6218609;28;20034;-79
2022/12/21 07:15:26;;;;;;;80.53;33.93;;;;;;;;;;6222239;28;20053;-79
2022/12/21 07:18:26;;;;;;;73.97;31.80;;;;;;;;;;6222616;28;20014;-79
2022/12/21 07:21:26;;;;;;;78.80;33.73;;;;;;;;;;6216918;28;20029;-80
2022/12/21 07:24:27;;;;;;;75.50;32.17;;;;;;;;;;6219507;28;20045;-79
2022/12/21 07:27:27;;;;;;;77.17;32.90;;;;;;;;;;6223596;28;20428;-79
2022/12/21 07:30:27;;;;;;;71.78;28.80;;;;;;;;;;6223452;28;20029;-78
2022/12/21 07:33:27;;;;;;;76.57;30.57;;;;;;;;;;6223871;28;20018;-79
2022/12/21 07:36:27;;;;;;;83.50;29.58;;;;;;;;;;6229074;28;20234;-79
2022/12/21 07:39:28;;;;;;;69.67;30.10;;;;;;;;;;6233308;28;20404;-79
2022/12/21 07:42:28;;;;;;;63.20;28.00;;;;;;;;;;6224007;28;20025;-79
2022/12/21 07:45:28;;;;;;;87.93;30.90;;;;;;;;;;6226812;28;20018;-79
2022/12/21 07:48:29;;;;;;;89.47;35.20;;;;;;;;;;6225873;28;20398;-79
2022/12/21 07:51:29;;;;;;;89.60;35.13;;;;;;;;;;6226999;28;20385;-79
2022/12/21 07:54:29;;;;;;;103.17;37.13;;;;;;;;;;6224379;28;20014;-79
2022/12/21 07:57:30;;;;;;;79.43;35.80;;;;;;;;;;6224148;28;20022;-79
2022/12/21 08:00:30;;;;;;;74.63;31.03;;;;;;;;;;6227231;28;20023;-79
2022/12/21 08:03:30;;;;;;;93.40;35.60;;;;;;;;;;6227824;28;20013;-78
2022/12/21 08:06:31;;;;;;;111.70;44.87;;;;;;;;;;6224481;28;20486;-79
2022/12/21 08:09:31;;;;;;;116.38;45.05;;;;;;;;;;6225303;28;20417;-79
2022/12/21 08:12:31;;;;;;;91.07;37.73;;;;;;;;;;6223543;28;20022;-78
2022/12/21 08:15:32;;;;;;;93.73;37.30;;;;;;;;;;6224281;28;20519;-78
2022/12/21 08:18:32;;;;;;;93.05;36.25;;;;;;;;;;6225295;28;20026;-78
2022/12/21 08:21:32;;;;;;;63.37;28.63;;;;;;;;;;6221621;28;20013;-79
2022/12/21 08:24:33;;;;;;;88.47;36.27;;;;;;;;;;6218683;28;20322;-79
2022/12/21 08:27:33;;;;;;;92.50;37.23;;;;;;;;;;6213646;28;20329;-79
2022/12/21 08:30:33;;;;;;;102.33;35.10;;;;;;;;;;6211641;28;20058;-81
2022/12/21 08:33:33;;;;;;;104.33;38.43;;;;;;;;;;6208332;28;20117;-79
2022/12/21 08:36:34;;;;;;;82.27;34.23;;;;;;;;;;6206559;28;20021;-79
2022/12/21 08:39:34;;;;;;;83.20;32.90;;;;;;;;;;6206121;28;20650;-79
2022/12/21 08:42:34;;;;;;;84.47;35.27;;;;;;;;;;6207744;28;20271;-78
2022/12/21 08:45:34;;;;;;;92.90;37.35;;;;;;;;;;6218383;28;20030;-78
2022/12/21 08:48:35;;;;;;;101.53;39.00;;;;;;;;;;6221537;28;20268;-79
2022/12/21 08:51:37;;;;;;;87.00;37.97;;;;;;;;;;6229812;28;20021;-79
2022/12/21 08:54:37;;;;;;;103.07;37.50;;;;;;;;;;6224798;28;20021;-80
2022/12/21 08:57:38;;;;;;;99.17;36.80;;;;;;;;;;6230139;28;20025;-80
2022/12/21 09:00:38;;;;;;;85.45;39.42;;;;;;;;;;6225641;28;20040;-79
2022/12/21 09:03:38;;;;;;;109.03;44.60;;;;;;;;;;6235545;28;20018;-79
2022/12/21 09:06:38;;;;;;;99.10;40.43;;;;;;;;;;6238176;28;20368;-80
2022/12/21 09:09:38;;;;;;;136.10;54.60;;;;;;;;;;6232410;28;20029;-80
2022/12/21 09:12:38;;;;;;;130.27;52.47;;;;;;;;;;6231771;28;20018;-80
2022/12/21 09:15:42;;;;;;;123.63;50.77;;;;;;;;;;6235601;28;20128;-80
2022/12/21 09:18:43;;;;;;;107.53;48.05;;;;;;;;;;6236997;28;20098;-80
2022/12/21 09:21:43;;;;;;;87.78;36.13;;;;;;;;;;6236831;28;20521;-79
2022/12/21 09:24:44;;;;;;;96.10;43.43;;;;;;;;;;6241554;28;20105;-79
2022/12/21 09:27:44;;;;;;;117.40;50.77;;;;;;;;;;6233219;28;20021;-80
2022/12/21 09:30:44;;;;;;;100.18;40.28;;;;;;;;;;6224574;28;20053;-80
2022/12/21 09:33:45;;;;;;;110.83;44.97;;;;;;;;;;6229530;28;20105;-80
2022/12/21 09:36:45;;;;;;;113.20;39.17;;;;;;;;;;6212645;28;20030;-81
2022/12/21 09:39:45;;;;;;;93.53;33.00;;;;;;;;;;6217182;28;20056;-81
2022/12/21 09:42:45;;;;;;;104.43;36.10;;;;;;;;;;6219859;28;20021;-81
2022/12/21 09:45:50;;;;;;;78.53;28.65;;;;;;;;;;6215911;28;20014;-81
2022/12/21 09:48:56;;;;;;;85.82;25.95;;;;;;;;;;6220812;28;20371;-81
2022/12/21 09:51:57;;;;;;;80.72;26.10;;;;;;;;;;6216470;28;20045;-81
2022/12/21 09:55:25;;;;;;;74.63;24.42;;;;;;;;;;6216781;28;20581;-81
2022/12/21 09:58:33;;;;;;;76.82;25.73;;;;;;;;;;6227341;28;20343;-81
2022/12/21 10:01:42;;;;;;;79.78;24.48;;;;;;;;;;6213487;28;20403;-82
2022/12/21 10:04:59;;;;;;;89.60;28.17;;;;;;;;;;6226077;28;20548;-81
2022/12/21 10:07:59;;;;;;;107.60;34.33;;;;;;;;;;6209667;28;20394;-81
2022/12/21 10:11:03;;;;;;;87.83;23.43;;;;;;;;;;6214649;28;20062;-82
2022/12/21 10:14:06;;;;;;;55.13;21.75;;;;;;;;;;6204939;28;20033;-82
2022/12/21 10:17:09;;;;;;;70.50;24.75;;;;;;;;;;6214508;28;20193;-81
2022/12/21 10:20:18;;;;;;;39.83;16.77;;;;;;;;;;6218723;28;20113;-81
2022/12/21 10:23:28;;;;;;;51.97;16.63;;;;;;;;;;6217945;28;20415;-82
2022/12/21 10:26:32;;;;;;;84.43;26.02;;;;;;;;;;6218077;28;20055;-82
2022/12/21 10:29:35;;;;;;;93.57;32.30;;;;;;;;;;6216792;28;20107;-82
2022/12/21 10:32:36;;;;;;;70.53;24.90;;;;;;;;;;6209747;28;20033;-82
2022/12/21 10:35:37;;;;;;;97.20;34.33;;;;;;;;;;6207161;28;20028;-82
2022/12/21 10:38:37;;;;;;;100.17;31.43;;;;;;;;;;6213750;28;20525;-82
2022/12/21 10:41:39;;;;;;;46.27;21.40;;;;;;;;;;6214973;28;20026;-81
2022/12/21 10:44:40;;;;;;;89.38;30.42;;;;;;;;;;6226602;28;20124;-81
2022/12/21 10:47:43;;;;;;;95.00;27.33;;;;;;;;;;6215226;28;20018;-80
2022/12/21 10:50:51;;;;;;;85.80;28.85;;;;;;;;;;6200275;28;20025;-79
2022/12/21 10:53:58;;;;;;;106.22;32.72;;;;;;;;;;6203840;28;20224;-78
2022/12/21 10:56:59;;;;;;;124.88;37.80;;;;;;;;;;6204014;28;20030;-79
2022/12/21 11:00:03;;;;;;;107.27;38.07;;;;;;;;;;6213529;28;20290;-78
2022/12/21 11:03:05;;;;;;;97.53;40.38;;;;;;;;;;6216118;28;20019;-77
2022/12/21 11:06:13;;;;;;;115.47;42.15;;;;;;;;;;6206517;28;20025;-77
2022/12/21 11:09:36;;;;;;;138.23;46.97;;;;;;;;;;6201639;28;20037;-77
2022/12/21 11:12:47;;;;;;;95.35;37.55;;;;;;;;;;6208294;28;20030;-76
2022/12/21 11:15:52;;;;;;;111.97;43.33;;;;;;;;;;6217896;28;20120;-76
2022/12/21 11:18:56;;;;;;;99.95;37.90;;;;;;;;;;6202498;28;20485;-76
2022/12/21 11:21:57;;;;;;;114.50;42.28;;;;;;;;;;6210045;28;20030;-76
2022/12/21 11:24:58;;;;;;;139.37;47.43;;;;;;;;;;6215593;28;20025;-76
2022/12/21 11:28:00;;;;;;;131.35;48.83;;;;;;;;;;6213797;28;20441;-76
2022/12/21 11:31:00;;;;;;;;;;;;;;;;;;6207910;28;20513;-75
2022/12/21 11:34:00;;;;;;;94.88;38.97;;;;;;;;;;6213801;28;20368;-76
2022/12/21 11:37:03;;;;;;;106.50;35.63;;;;;;;;;;6210929;28;20116;-76
2022/12/21 11:40:13;;;;;;;130.88;47.80;;;;;;;;;;6208571;28;20046;-76
2022/12/21 11:43:16;;;;;;;126.55;49.58;;;;;;;;;;6203217;28;20022;-76
2022/12/21 11:46:26;;;;;;;161.00;50.78;;;;;;;;;;6208327;28;20204;-77
2022/12/21 11:49:29;;;;;;;135.52;51.70;;;;;;;;;;6209006;28;20030;-77
2022/12/21 11:52:38;;;;;;;140.25;48.85;;;;;;;;;;6217967;28;20022;-77
2022/12/21 11:56:07;;;;;;;184.70;52.90;;;;;;;;;;6220865;28;20448;-76
2022/12/21 11:59:20;;;;;;;153.38;50.67;;;;;;;;;;6201597;28;20053;-76
2022/12/21 12:02:29;;;;;;;146.35;48.70;;;;;;;;;;6219379;28;20022;-76
2022/12/21 12:05:35;;;;;;;156.30;50.00;;;;;;;;;;6219004;28;20547;-76
2022/12/21 12:08:35;;;;;;;122.68;42.55;;;;;;;;;;6221751;28;20353;-76
2022/12/21 12:11:46;;;;;;;73.38;30.20;;;;;;;;;;6211422;28;20091;-77
2022/12/21 12:14:59;;;;;;;98.95;33.67;;;;;;;;;;6215782;28;20026;-76
2022/12/21 12:17:59;;;;;;;91.43;32.15;;;;;;;;;;6215921;28;20057;-76
2022/12/21 12:21:06;;;;;;;104.55;31.02;;;;;;;;;;6213612;28;20018;-76
2022/12/21 12:24:16;;;;;;;100.55;34.05;;;;;;;;;;6219210;28;20222;-76
2022/12/21 12:27:25;;;;;;;101.78;32.67;;;;;;;;;;6216803;28;20033;-75
2022/12/21 12:30:31;;;;;;;54.25;24.85;;;;;;;;;;6214183;28;20037;-75
2022/12/21 12:33:41;;;;;;;77.78;31.13;;;;;;;;;;6212350;28;20033;-74
2022/12/21 12:36:42;;;;;;;101.45;31.73;;;;;;;;;;6216618;28;20036;-74
2022/12/21 12:39:45;;;;;;;115.88;32.90;;;;;;;;;;6205723;28;20077;-74
2022/12/21 12:42:59;;;;;;;109.18;37.45;;;;;;;;;;6206637;28;20032;-75
2022/12/21 12:46:11;;;;;;;129.05;37.38;;;;;;;;;;6208568;28;20072;-76
2022/12/21 12:49:35;;;;;;;119.45;40.45;;;;;;;;;;6215441;28;20029;-76
2022/12/21 12:52:38;;;;;;;112.75;40.55;;;;;;;;;;6217116;28;20117;-75
2022/12/21 12:55:58;;;;;;;144.52;43.55;;;;;;;;;;6210484;28;20032;-75
2022/12/21 12:59:22;;;;;;;125.88;42.25;;;;;;;;;;6208813;28;20504;-76
2022/12/21 13:02:36;;;;;;;123.75;42.05;;;;;;;;;;6210166;28;20038;-75
2022/12/21 13:05:46;;;;;;;112.63;36.75;;;;;;;;;;6210303;28;20501;-73
2022/12/21 13:08:55;;;;;;;118.47;39.95;;;;;;;;;;6204876;28;20058;-74
2022/12/21 13:12:02;;;;;;;99.90;36.08;;;;;;;;;;6212113;28;20106;-74
2022/12/21 13:15:04;;;;;;;84.53;36.25;;;;;;;;;;6210603;28;20100;-74
2022/12/21 13:18:12;;;;;;;152.50;49.65;;;;;;;;;;6210492;28;20061;-74
2022/12/21 13:21:14;;;;;;;144.15;47.58;;;;;;;;;;6212329;28;20075;-74
2022/12/21 13:24:17;;;;;;;208.52;69.88;;;;;;;;;;6210960;28;20121;-75
2022/12/21 13:27:38;;;;;;;162.95;59.95;;;;;;;;;;6210057;28;20062;-75
2022/12/21 13:30:40;;;;;;;124.90;43.22;;;;;;;;;;6208627;28;20036;-74
2022/12/21 13:33:50;;;;;;;83.60;32.20;;;;;;;;;;6211182;28;20378;-74
2022/12/21 13:36:50;;;;;;;109.55;38.38;;;;;;;;;;6211045;28;20294;-75
2022/12/21 13:39:55;;;;;;;134.83;40.63;;;;;;;;;;6211799;28;20338;-75
2022/12/21 13:42:58;;;;;;;122.28;34.38;;;;;;;;;;6207733;28;20112;-76
2022/12/21 13:46:01;;;;;;;132.60;41.85;;;;;;;;;;6229129;28;20026;-77
2022/12/21 13:49:02;;;;;;;149.45;45.92;;;;;;;;;;6210954;28;20014;-78
2022/12/21 13:52:10;;;;;;;211.50;69.90;;;;;;;;;;6212653;28;20014;-79
2022/12/21 13:55:16;;;;;;;243.13;89.05;;;;;;;;;;6214384;28;20100;-79
2022/12/21 13:58:16;;;;;;;233.98;89.82;;;;;;;;;;6214069;28;20235;-78
2022/12/21 14:01:30;;;;;;;176.68;66.65;;;;;;;;;;6222250;28;20029;-79
2022/12/21 14:04:41;;;;;;;186.35;62.20;;;;;;;;;;6219296;28;20056;-79
2022/12/21 14:07:44;;;;;;;149.93;52.22;;;;;;;;;;6213640;28;20029;-80
2022/12/21 14:10:52;;;;;;;153.27;48.08;;;;;;;;;;6216367;28;20580;-79
2022/12/21 14:14:03;;;;;;;221.73;74.35;;;;;;;;;;6217203;28;20075;-79
2022/12/21 14:17:15;;;;;;;141.45;47.60;;;;;;;;;;6212627;28;20060;-80
2022/12/21 14:20:29;;;;;;;164.43;55.67;;;;;;;;;;6217634;28;20030;-81
2022/12/21 14:23:30;;;;;;;207.98;67.00;;;;;;;;;;6216033;28;20030;-80
2022/12/21 14:26:39;;;;;;;206.23;62.75;;;;;;;;;;6214559;28;20083;-79
2022/12/21 14:29:43;;;;;;;151.68;49.58;;;;;;;;;;6211350;28;20032;-82
2022/12/21 14:32:50;;;;;;;148.23;43.33;;;;;;;;;;6212366;28;20026;-79
2022/12/21 14:36:09;;;;;;;162.65;48.25;;;;;;;;;;6216146;28;20022;-79
2022/12/21 14:39:09;;;;;;;148.10;49.63;;;;;;;;;;6208011;28;20069;-78
2022/12/21 14:42:28;;;;;;;173.67;55.53;;;;;;;;;;6209503;28;20038;-77
2022/12/21 14:45:31;;;;;;;179.93;59.08;;;;;;;;;;6204228;28;20038;-78
2022/12/21 14:48:32;;;;;;;194.15;62.35;;;;;;;;;;6208656;28;20025;-78
2022/12/21 14:51:52;;;;;;;173.10;59.03;;;;;;;;;;6205511;28;20111;-78
2022/12/21 14:54:59;;;;;;;119.65;53.70;;;;;;;;;;6209989;28;20106;-79
2022/12/21 14:58:00;;;;;;;179.02;59.92;;;;;;;;;;6200491;28;20058;-80
2022/12/21 15:01:17;;;;;;;170.73;56.23;;;;;;;;;;6203137;28;20010;-80
2022/12/21 15:04:20;;;;;;;154.35;56.78;;;;;;;;;;6208079;28;20065;-79
2022/12/21 15:07:23;;;;;;;163.13;58.97;;;;;;;;;;6210585;28;20107;-79
2022/12/21 15:10:26;;;;;;;164.48;57.80;;;;;;;;;;6206042;28;20084;-79
2022/12/21 15:13:29;;;;;;;163.80;63.22;;;;;;;;;;6197560;28;20144;-80
2022/12/21 15:16:31;;;;;;;157.50;61.83;;;;;;;;;;6204512;28;20022;-81
2022/12/21 15:19:33;;;;;;;136.38;56.40;;;;;;;;;;6214409;28;20614;-83
2022/12/21 15:22:50;;;;;;;151.40;50.10;;;;;;;;;;6216485;28;20018;-83
2022/12/21 15:26:05;;;;;;;165.07;63.60;;;;;;;;;;6206952;28;20018;-83
2022/12/21 15:29:05;;;;;;;166.10;53.78;;;;;;;;;;6205741;28;20454;-84
2022/12/21 15:32:14;;;;;;;180.97;59.93;;;;;;;;;;6209165;28;20072;-83
2022/12/21 15:35:22;;;;;;;189.63;62.00;;;;;;;;;;6218091;28;20049;-83
2022/12/21 15:38:39;;;;;;;143.13;48.25;;;;;;;;;;6220342;28;20026;-83
2022/12/21 15:41:52;;;;;;;158.02;51.47;;;;;;;;;;6216014;28;20094;-83
2022/12/21 15:45:16;;;;;;;144.32;50.72;;;;;;;;;;6217621;28;20026;-82
2022/12/21 15:48:23;;;;;;;149.45;49.88;;;;;;;;;;6201739;28;20036;-82
2022/12/21 15:51:25;;;;;;;120.10;42.83;;;;;;;;;;6212132;28;20017;-80
2022/12/21 15:54:29;;;;;;;138.13;45.20;;;;;;;;;;6208575;28;20026;-79
2022/12/21 15:57:30;;;;;;;136.88;40.70;;;;;;;;;;6204223;28;20387;-79
2022/12/21 16:00:39;;;;;;;155.23;46.95;;;;;;;;;;6212931;28;20080;-78
2022/12/21 16:03:40;;;;;;;148.20;48.78;;;;;;;;;;6213339;28;20100;-78
2022/12/21 16:06:46;;;;;;;163.00;46.73;;;;;;;;;;6214125;28;20025;-78
2022/12/21 16:09:49;;;;;;;154.80;52.05;;;;;;;;;;6214495;28;20319;-78
2022/12/21 16:12:52;;;;;;;167.85;51.45;;;;;;;;;;6212842;28;20025;-78
2022/12/21 16:15:53;;;;;;;122.53;42.50;;;;;;;;;;6218332;28;20109;-78
2022/12/21 16:18:54;;;;;;;112.20;41.70;;;;;;;;;;6214033;28;20022;-78
2022/12/21 16:21:59;;;;;;;137.17;44.00;;;;;;;;;;6211880;28;20018;-76
2022/12/21 16:25:06;;;;;;;131.10;43.55;;;;;;;;;;6215996;28;20018;-77
2022/12/21 16:28:13;;;;;;;142.07;48.90;;;;;;;;;;6198120;28;20026;-76
2022/12/21 16:31:14;;;;;;;145.55;46.70;;;;;;;;;;6204095;28;20461;-77
2022/12/21 16:34:26;;;;;;;150.77;48.03;;;;;;;;;;6213140;28;20026;-77
2022/12/21 16:37:28;;;;;;;168.32;49.38;;;;;;;;;;6208337;28;20089;-77
2022/12/21 16:40:32;;;;;;;137.75;51.90;;;;;;;;;;6207659;28;20580;-77
2022/12/21 16:43:34;;;;;;;176.90;64.68;;;;;;;;;;6216161;28;20250;-77
2022/12/21 16:46:53;;;;;;;146.57;51.47;;;;;;;;;;6216394;28;20242;-76
2022/12/21 16:49:54;;;;;;;141.38;48.17;;;;;;;;;;6205106;28;20076;-76
2022/12/21 16:52:54;;;;;;;131.30;48.97;;;;;;;;;;6207703;28;20128;-77
2022/12/21 16:56:13;;;;;;;162.90;48.30;;;;;;;;;;6213368;28;20026;-78
2022/12/21 16:59:18;;;;;;;137.57;52.25;;;;;;;;;;6198990;28;20025;-79
2022/12/21 17:02:21;;;;;;;127.60;44.33;;;;;;;;;;6199479;28;20019;-79
2022/12/21 17:05:30;;;;;;;133.93;40.42;;;;;;;;;;6208809;28;20021;-79
2022/12/21 17:08:33;;;;;;;141.93;40.47;;;;;;;;;;6210084;28;20383;-79
2022/12/21 17:11:34;;;;;;;118.00;40.13;;;;;;;;;;6214359;28;20037;-79
2022/12/21 17:14:39;;;;;;;117.80;40.37;;;;;;;;;;6205334;28;20406;-78
2022/12/21 17:17:43;;;;;;;71.35;31.00;;;;;;;;;;6207717;28;20034;-78
2022/12/21 17:20:44;;;;;;;72.97;34.78;;;;;;;;;;6213163;28;20026;-78
2022/12/21 17:23:54;;;;;;;70.78;30.52;;;;;;;;;;6205668;28;20076;-78
2022/12/21 17:26:54;;;;;;;107.38;38.97;;;;;;;;;;6211198;28;20024;-78
2022/12/21 17:29:55;;;;;;;89.73;37.43;;;;;;;;;;6208397;28;20034;-79
2022/12/21 17:33:04;;;;;;;115.13;38.97;;;;;;;;;;6205246;28;20057;-79
2022/12/21 17:36:05;;;;;;;140.23;46.63;;;;;;;;;;6207174;28;20495;-78
2022/12/21 17:39:13;;;;;;;136.47;39.10;;;;;;;;;;6193241;28;20041;-78
2022/12/21 17:42:14;;;;;;;152.63;43.67;;;;;;;;;;6204218;28;20021;-78
2022/12/21 17:45:15;;;;;;;137.63;45.17;;;;;;;;;;6200488;28;20049;-79
2022/12/21 17:48:15;;;;;;;139.90;38.60;;;;;;;;;;6206896;28;20322;-79
2022/12/21 17:51:17;;;;;;;124.37;41.07;;;;;;;;;;6211058;28;20348;-78
2022/12/21 17:54:17;;;;;;;104.95;28.23;;;;;;;;;;6199826;28;20369;-80